Time;durP1;ratioP1;P1;durP2;ratioP2;P2;SDS_P1;SDS_P2;PMS_P1;PMS_P2;Temp;Humidity;BMP_temperature;BMP_pressure;BME280_temperature;BME280_humidity;BME280_pressure;Samples;Min_cycle;Max_cycle;Signal;HPM_P1;HPM_P2
2023/07/24 00:00:35;;;;;;;6.47;5.87;;;19.00;99.90;;;;;;5075016;28;20495;-74
2023/07/24 00:03:03;;;;;;;6.80;4.87;;;19.00;99.90;;;;;;5073365;28;20834;-74
2023/07/24 00:05:30;;;;;;;6.30;5.67;;;18.90;99.90;;;;;;5074431;28;20489;-74
2023/07/24 00:07:57;;;;;;;6.00;4.47;;;18.90;99.90;;;;;;5075366;28;20496;-74
2023/07/24 00:10:24;;;;;;;5.30;4.60;;;18.90;99.90;;;;;;5074336;28;20873;-73
2023/07/24 00:12:51;;;;;;;5.60;4.97;;;18.90;99.90;;;;;;5074618;28;20947;-73
2023/07/24 00:15:18;;;;;;;5.47;4.97;;;18.90;99.90;;;;;;5070756;28;20902;-74
2023/07/24 00:17:45;;;;;;;5.73;5.13;;;18.90;99.90;;;;;;5074870;28;20874;-74
2023/07/24 00:20:13;;;;;;;7.10;5.50;;;18.80;99.90;;;;;;5074251;28;20537;-74
2023/07/24 00:22:40;;;;;;;6.80;5.43;;;18.80;99.90;;;;;;5064634;28;20501;-73
2023/07/24 00:25:08;;;;;;;5.50;5.00;;;18.80;99.90;;;;;;5057134;28;20497;-73
2023/07/24 00:27:35;;;;;;;5.50;5.00;;;18.80;99.90;;;;;;5062844;28;20456;-73
2023/07/24 00:30:02;;;;;;;7.70;4.33;;;18.70;99.90;;;;;;5073032;28;20528;-73
2023/07/24 00:32:29;;;;;;;6.07;4.87;;;18.70;99.90;;;;;;5060076;28;21141;-74
2023/07/24 00:34:56;;;;;;;5.07;4.53;;;18.70;99.90;;;;;;5064194;28;20445;-73
2023/07/24 00:37:26;;;;;;;5.37;4.87;;;18.70;99.90;;;;;;5065741;28;20473;-73
2023/07/24 00:39:52;;;;;;;5.63;5.10;;;18.70;99.90;;;;;;5071249;28;20449;-74
2023/07/24 00:42:19;;;;;;;5.47;4.60;;;18.60;99.90;;;;;;5062988;28;20474;-73
2023/07/24 00:44:46;;;;;;;5.43;4.93;;;18.60;99.90;;;;;;5069434;28;20578;-74
2023/07/24 00:47:13;;;;;;;4.90;4.40;;;18.60;99.90;;;;;;5068105;28;20465;-75
2023/07/24 00:49:41;;;;;;;4.73;4.30;;;18.60;99.90;;;;;;5073100;28;20480;-74
2023/07/24 00:52:09;;;;;;;5.07;4.03;;;18.60;99.90;;;;;;5078448;28;20540;-75
2023/07/24 00:54:38;;;;;;;4.80;4.40;;;18.70;99.90;;;;;;5062587;28;20474;-74
2023/07/24 00:57:07;;;;;;;4.60;4.20;;;18.70;99.90;;;;;;5072343;28;20449;-75
2023/07/24 00:59:34;;;;;;;6.90;5.00;;;18.80;99.90;;;;;;5066661;28;20497;-76
2023/07/24 01:02:02;;;;;;;4.67;4.27;;;18.80;99.90;;;;;;5073064;28;20441;-74
2023/07/24 01:04:29;;;;;;;5.20;4.70;;;18.80;99.90;;;;;;5068255;28;20481;-74
2023/07/24 01:06:57;;;;;;;4.77;4.33;;;18.90;99.90;;;;;;5070105;28;20528;-76
2023/07/24 01:09:25;;;;;;;5.57;5.07;;;18.90;99.90;;;;;;5070097;28;20449;-74
2023/07/24 01:11:58;;;;;;;4.80;4.40;;;18.90;99.90;;;;;;5065991;28;20471;-75
2023/07/24 01:14:30;;;;;;;5.13;4.33;;;18.90;99.90;;;;;;5056723;28;20480;-75
2023/07/24 01:17:01;;;;;;;7.60;6.70;;;18.80;99.90;;;;;;5059558;28;20526;-75
2023/07/24 01:19:37;;;;;;;4.20;3.80;;;18.90;99.90;;;;;;5073395;28;20441;-75
2023/07/24 01:22:16;;;;;;;4.43;4.00;;;18.90;99.90;;;;;;5058459;28;20446;-75
2023/07/24 01:25:01;;;;;;;5.37;4.60;;;18.90;99.90;;;;;;5068152;28;20543;-75
2023/07/24 01:27:30;;;;;;;5.03;4.53;;;18.90;99.90;;;;;;5073081;28;20465;-74
2023/07/24 01:29:57;;;;;;;4.90;4.40;;;18.90;99.90;;;;;;5070171;28;20441;-73
2023/07/24 01:32:24;;;;;;;4.80;3.97;;;18.80;99.90;;;;;;5073956;28;20448;-76
2023/07/24 01:34:52;;;;;;;5.43;4.60;;;18.80;99.90;;;;;;5073334;28;20529;-74
2023/07/24 01:37:21;;;;;;;7.07;5.60;;;18.80;99.90;;;;;;5065604;28;21292;-74
2023/07/24 01:39:49;;;;;;;5.13;3.73;;;18.70;99.90;;;;;;5072023;28;20451;-75
2023/07/24 01:42:16;;;;;;;4.80;4.37;;;18.70;99.90;;;;;;5072434;28;20450;-75
2023/07/24 01:44:45;;;;;;;5.70;4.70;;;18.60;99.90;;;;;;5070583;28;20479;-75
2023/07/24 01:47:12;;;;;;;6.13;4.73;;;18.60;99.90;;;;;;5073628;28;20460;-75
2023/07/24 01:49:38;;;;;;;4.90;4.40;;;18.60;99.90;;;;;;5068905;28;20483;-75
2023/07/24 01:52:06;;;;;;;6.80;5.50;;;18.50;99.90;;;;;;5072855;28;20524;-74
2023/07/24 01:54:33;;;;;;;5.30;4.80;;;18.50;99.90;;;;;;5070300;28;20453;-75
2023/07/24 01:57:00;;;;;;;8.00;4.70;;;18.40;99.90;;;;;;5073212;28;20453;-75
2023/07/24 01:59:26;;;;;;;6.17;5.67;;;18.40;99.90;;;;;;5072734;28;20485;-75
2023/07/24 02:01:55;;;;;;;5.70;5.20;;;18.50;99.90;;;;;;5064954;28;20453;-75
2023/07/24 02:04:22;;;;;;;6.20;5.60;;;18.50;99.90;;;;;;5072685;28;20468;-75
2023/07/24 02:06:49;;;;;;;8.47;6.00;;;18.50;99.90;;;;;;5072529;28;20445;-76
2023/07/24 02:09:16;;;;;;;6.30;5.70;;;18.60;99.90;;;;;;5067699;28;20438;-77
2023/07/24 02:11:44;;;;;;;6.10;5.50;;;18.60;99.90;;;;;;5062939;28;20821;-76
2023/07/24 02:14:13;;;;;;;6.13;5.13;;;18.60;99.90;;;;;;5058534;28;21092;-76
2023/07/24 02:16:40;;;;;;;7.43;5.93;;;18.60;99.90;;;;;;5061777;28;20534;-73
2023/07/24 02:19:08;;;;;;;6.83;5.70;;;18.60;99.90;;;;;;5069021;28;20449;-75
2023/07/24 02:21:40;;;;;;;7.40;4.73;;;18.70;99.90;;;;;;5066238;28;20439;-74
2023/07/24 02:24:07;;;;;;;16.17;6.17;;;18.70;99.90;;;;;;5065730;28;20531;-77
2023/07/24 02:26:35;;;;;;;6.83;5.43;;;18.80;99.90;;;;;;5059358;28;20573;-75
2023/07/24 02:29:02;;;;;;;10.00;5.30;;;18.70;99.90;;;;;;5069911;28;20445;-74
2023/07/24 02:31:28;;;;;;;6.23;5.63;;;18.80;99.90;;;;;;5067348;28;20884;-75
2023/07/24 02:33:56;;;;;;;6.00;5.30;;;18.80;99.90;;;;;;5072484;28;20553;-75
2023/07/24 02:36:25;;;;;;;6.83;5.93;;;18.70;99.90;;;;;;5070250;28;20453;-76
2023/07/24 02:38:52;;;;;;;7.00;6.37;;;18.80;99.90;;;;;;5070009;28;20441;-75
2023/07/24 02:41:20;;;;;;;7.40;6.47;;;18.80;99.90;;;;;;5076211;28;20456;-74
2023/07/24 02:43:47;;;;;;;7.03;6.43;;;18.70;99.90;;;;;;5072190;28;20469;-75
2023/07/24 02:46:14;;;;;;;6.00;5.40;;;18.70;99.90;;;;;;5067869;28;20474;-76
2023/07/24 02:48:40;;;;;;;7.50;6.27;;;18.70;99.90;;;;;;5062461;28;20532;-74
2023/07/24 02:51:07;;;;;;;7.60;6.80;;;18.70;99.90;;;;;;5067024;28;20476;-74
2023/07/24 02:53:36;;;;;;;5.93;5.43;;;18.60;99.90;;;;;;5069063;28;20552;-74
2023/07/24 02:56:03;;;;;;;7.70;6.30;;;18.60;99.90;;;;;;5063205;28;20437;-74
2023/07/24 02:58:30;;;;;;;5.93;5.43;;;18.50;99.90;;;;;;5065462;28;20456;-74
2023/07/24 03:01:04;;;;;;;6.80;6.13;;;18.50;99.90;;;;;;5066737;28;20523;-75
2023/07/24 03:03:30;;;;;;;8.70;6.60;;;18.40;99.90;;;;;;5066457;28;20462;-75
2023/07/24 03:05:57;;;;;;;7.27;6.67;;;18.30;99.90;;;;;;5063638;28;20527;-75
2023/07/24 03:08:24;;;;;;;7.10;6.40;;;18.30;99.90;;;;;;5071266;28;20473;-73
2023/07/24 03:10:53;;;;;;;9.27;7.07;;;18.20;99.90;;;;;;5063301;28;20477;-74
2023/07/24 03:13:20;;;;;;;7.87;7.10;;;18.20;99.90;;;;;;5068429;28;20563;-74
2023/07/24 03:15:52;;;;;;;7.60;6.77;;;18.20;99.90;;;;;;5063330;28;20951;-73
2023/07/24 03:18:19;;;;;;;7.60;6.10;;;18.20;99.90;;;;;;5068652;28;20461;-74
2023/07/24 03:20:46;;;;;;;7.07;6.37;;;18.20;99.90;;;;;;5065659;28;20449;-75
2023/07/24 03:23:14;;;;;;;10.03;7.83;;;18.20;99.90;;;;;;5065399;28;20472;-74
2023/07/24 03:25:41;;;;;;;8.37;7.57;;;18.20;99.90;;;;;;5072711;28;20567;-75
2023/07/24 03:28:09;;;;;;;7.27;6.53;;;18.20;99.90;;;;;;5061403;28;20536;-74
2023/07/24 03:30:36;;;;;;;7.60;6.70;;;18.30;99.90;;;;;;5067408;28;20454;-75
2023/07/24 03:33:03;;;;;;;7.10;6.40;;;18.30;99.90;;;;;;5071573;28;20465;-74
2023/07/24 03:35:30;;;;;;;7.03;6.10;;;18.30;99.90;;;;;;5068751;28;20442;-75
2023/07/24 03:37:57;;;;;;;8.30;6.80;;;18.30;99.90;;;;;;5068203;28;20540;-74
2023/07/24 03:40:24;;;;;;;8.87;6.23;;;18.40;99.90;;;;;;5072170;28;20863;-74
2023/07/24 03:42:52;;;;;;;6.60;6.00;;;18.40;99.90;;;;;;5067365;28;20473;-74
2023/07/24 03:45:20;;;;;;;7.57;6.07;;;18.40;99.90;;;;;;5075369;28;20513;-74
2023/07/24 03:47:48;;;;;;;8.10;6.77;;;18.40;99.90;;;;;;5073556;28;20473;-75
2023/07/24 03:50:15;;;;;;;7.53;6.80;;;18.40;99.90;;;;;;5074199;28;20532;-75
2023/07/24 03:52:42;;;;;;;6.20;5.57;;;18.40;99.90;;;;;;5070721;28;20892;-75
2023/07/24 03:55:10;;;;;;;9.47;6.00;;;18.50;99.90;;;;;;5073664;28;20528;-75
2023/07/24 03:57:43;;;;;;;5.77;4.57;;;18.60;99.90;;;;;;5074168;28;20449;-75
2023/07/24 04:00:11;;;;;;;6.70;6.10;;;18.60;99.90;;;;;;5064956;28;20524;-75
2023/07/24 04:02:39;;;;;;;6.00;5.07;;;18.60;99.90;;;;;;5068233;28;20473;-74
2023/07/24 04:05:07;;;;;;;6.40;5.80;;;18.60;99.90;;;;;;5072646;28;20449;-74
2023/07/24 04:07:34;;;;;;;5.47;4.97;;;18.70;99.90;;;;;;5063712;28;20517;-75
2023/07/24 04:10:02;;;;;;;6.57;5.60;;;18.70;99.90;;;;;;5073407;28;20474;-75
2023/07/24 04:12:30;;;;;;;5.90;4.83;;;18.70;99.90;;;;;;5076422;28;20524;-75
2023/07/24 04:14:57;;;;;;;6.97;5.60;;;18.70;99.90;;;;;;5073244;28;20453;-75
2023/07/24 04:17:24;;;;;;;5.90;5.40;;;18.70;99.90;;;;;;5069588;28;20437;-75
2023/07/24 04:19:52;;;;;;;5.73;4.73;;;18.70;99.90;;;;;;5073407;28;20446;-74
2023/07/24 04:22:19;;;;;;;5.20;4.53;;;18.80;99.90;;;;;;5072713;28;20443;-75
2023/07/24 04:24:47;;;;;;;7.07;5.03;;;18.90;99.90;;;;;;5075085;28;20477;-75
2023/07/24 04:27:14;;;;;;;5.37;4.87;;;18.90;99.90;;;;;;5067454;28;20568;-75
2023/07/24 04:29:41;;;;;;;7.87;6.03;;;18.80;99.90;;;;;;5074316;28;20445;-76
2023/07/24 04:32:09;;;;;;;4.83;4.33;;;18.80;99.90;;;;;;5060134;28;20544;-74
2023/07/24 04:34:36;;;;;;;5.40;4.70;;;18.80;99.90;;;;;;5066425;28;20480;-75
2023/07/24 04:37:05;;;;;;;6.57;5.93;;;18.80;99.90;;;;;;5066209;28;20445;-75
2023/07/24 04:39:33;;;;;;;5.63;5.13;;;18.90;99.90;;;;;;5071436;28;20471;-74
2023/07/24 04:42:00;;;;;;;5.87;5.27;;;19.00;99.90;;;;;;5066779;28;20451;-75
2023/07/24 04:44:27;;;;;;;5.43;4.50;;;19.10;99.90;;;;;;5063577;28;20502;-75
2023/07/24 04:46:55;;;;;;;5.40;3.90;;;19.10;99.90;;;;;;5066126;28;20487;-75
2023/07/24 04:49:22;;;;;;;5.10;4.60;;;19.30;99.90;;;;;;5071271;28;20464;-76
2023/07/24 04:51:49;;;;;;;5.87;4.37;;;19.40;99.90;;;;;;5072248;28;20445;-76
2023/07/24 04:54:17;;;;;;;7.23;5.10;;;19.60;99.90;;;;;;5072548;28;20465;-75
2023/07/24 04:56:44;;;;;;;5.23;4.20;;;19.60;99.90;;;;;;5074497;28;20435;-76
2023/07/24 04:59:11;;;;;;;4.90;3.67;;;19.70;99.90;;;;;;5062230;28;20458;-76
2023/07/24 05:01:38;;;;;;;4.13;3.73;;;19.80;99.90;;;;;;5072286;28;20964;-74
2023/07/24 05:04:05;;;;;;;5.80;4.20;;;19.80;99.90;;;;;;5065050;28;20509;-75
2023/07/24 05:06:35;;;;;;;4.07;3.77;;;19.70;99.90;;;;;;5062613;28;20495;-75
2023/07/24 05:09:02;;;;;;;5.00;3.80;;;19.60;99.90;;;;;;5064347;28;20454;-77
2023/07/24 05:11:30;;;;;;;3.70;3.20;;;19.60;99.90;;;;;;5067041;28;20446;-76
2023/07/24 05:13:57;;;;;;;5.27;4.57;;;19.40;99.90;;;;;;5063489;28;20539;-76
2023/07/24 05:16:24;;;;;;;4.53;3.27;;;19.50;99.90;;;;;;5063360;28;20470;-79
2023/07/24 05:18:51;;;;;;;4.20;3.77;;;19.50;99.90;;;;;;5068535;28;20500;-75
2023/07/24 05:21:18;;;;;;;3.80;3.40;;;19.50;99.90;;;;;;5060629;28;20458;-75
2023/07/24 05:23:45;;;;;;;4.57;3.70;;;19.60;99.90;;;;;;5067295;28;20489;-74
2023/07/24 05:26:11;;;;;;;5.40;4.23;;;19.70;99.90;;;;;;5067794;28;20510;-75
2023/07/24 05:28:40;;;;;;;5.53;4.13;;;19.70;99.90;;;;;;5068037;28;20485;-75
2023/07/24 05:31:07;;;;;;;4.30;3.90;;;19.50;99.90;;;;;;5065471;28;20449;-74
2023/07/24 05:33:34;;;;;;;5.40;3.90;;;19.50;99.90;;;;;;5067432;28;20501;-75
2023/07/24 05:36:02;;;;;;;5.47;4.97;;;19.50;99.90;;;;;;5068411;28;20445;-73
2023/07/24 05:38:29;;;;;;;5.27;4.67;;;19.50;99.90;;;;;;5068827;28;20455;-73
2023/07/24 05:40:57;;;;;;;5.13;3.67;;;19.50;99.90;;;;;;5071952;28;20455;-74
2023/07/24 05:43:24;;;;;;;4.50;3.77;;;19.60;99.90;;;;;;5072953;28;20548;-74
2023/07/24 05:45:53;;;;;;;5.53;4.37;;;19.60;99.90;;;;;;5073323;28;20512;-75
2023/07/24 05:48:20;;;;;;;4.07;3.67;;;19.70;99.90;;;;;;5069955;28;20758;-73
2023/07/24 05:50:58;;;;;;;4.67;4.27;;;19.70;99.90;;;;;;5056064;28;20469;-75
2023/07/24 05:53:25;;;;;;;4.70;3.47;;;19.70;99.90;;;;;;5065255;28;20480;-73
2023/07/24 05:55:58;;;;;;;5.03;4.50;;;19.90;99.90;;;;;;5063849;28;20444;-74
2023/07/24 05:58:25;;;;;;;4.07;3.67;;;19.90;99.90;;;;;;5070407;28;20523;-75
2023/07/24 06:00:55;;;;;;;4.23;3.83;;;20.00;99.90;;;;;;5064801;28;20482;-75
2023/07/24 06:03:21;;;;;;;6.43;4.97;;;20.00;99.90;;;;;;5071652;28;20472;-74
2023/07/24 06:05:52;;;;;;;4.87;4.37;;;19.80;99.90;;;;;;5072912;28;20548;-75
2023/07/24 06:08:19;;;;;;;6.30;5.70;;;19.70;99.90;;;;;;5064195;28;20445;-74
2023/07/24 06:10:48;;;;;;;6.13;4.23;;;19.70;99.90;;;;;;5071030;28;20468;-74
2023/07/24 06:13:15;;;;;;;6.73;5.57;;;19.60;99.90;;;;;;5069195;28;20473;-74
2023/07/24 06:15:42;;;;;;;4.57;4.17;;;19.50;99.90;;;;;;5072784;28;20456;-74
2023/07/24 06:18:10;;;;;;;6.20;5.30;;;19.60;99.90;;;;;;5078144;28;20456;-74
2023/07/24 06:20:37;;;;;;;5.97;5.37;;;19.60;99.90;;;;;;5070993;28;20540;-74
2023/07/24 06:23:04;;;;;;;6.20;5.60;;;19.60;99.90;;;;;;5061671;28;20536;-75
2023/07/24 06:25:31;;;;;;;6.63;6.03;;;19.60;99.90;;;;;;5073426;28;20456;-75
2023/07/24 06:27:58;;;;;;;7.47;6.03;;;19.70;99.90;;;;;;5072435;28;20564;-75
2023/07/24 06:30:26;;;;;;;6.60;5.53;;;19.80;99.90;;;;;;5071738;28;20552;-75
2023/07/24 06:32:53;;;;;;;5.97;5.47;;;19.90;99.90;;;;;;5071335;28;20972;-76
2023/07/24 06:35:21;;;;;;;6.33;5.73;;;19.90;99.90;;;;;;5066734;28;20956;-75
2023/07/24 06:37:48;;;;;;;9.30;6.73;;;19.80;99.90;;;;;;5072447;28;20470;-76
2023/07/24 06:40:15;;;;;;;7.43;6.73;;;19.80;99.90;;;;;;5068654;28;20461;-74
2023/07/24 06:42:42;;;;;;;7.27;6.57;;;19.80;99.90;;;;;;5071993;28;20977;-75
2023/07/24 06:45:09;;;;;;;6.40;5.80;;;19.80;99.90;;;;;;5072143;28;20445;-74
2023/07/24 06:47:37;;;;;;;7.37;6.63;;;19.80;99.90;;;;;;5065989;28;20481;-76
2023/07/24 06:50:05;;;;;;;9.57;7.07;;;19.80;99.90;;;;;;5061172;28;20524;-73
2023/07/24 06:52:34;;;;;;;6.83;6.20;;;19.90;99.90;;;;;;5068323;28;20503;-76
2023/07/24 06:55:01;;;;;;;7.67;6.97;;;19.90;99.90;;;;;;5070035;28;20443;-75
2023/07/24 06:57:28;;;;;;;7.63;6.83;;;19.90;99.90;;;;;;5072358;28;20525;-74
2023/07/24 06:59:54;;;;;;;7.73;7.03;;;20.00;99.90;;;;;;5067208;28;20448;-75
2023/07/24 07:02:21;;;;;;;7.33;6.57;;;19.90;99.90;;;;;;5071711;28;20528;-75
2023/07/24 07:04:49;;;;;;;6.53;5.93;;;19.80;99.90;;;;;;5059411;28;20457;-75
2023/07/24 07:07:16;;;;;;;6.83;6.27;;;19.80;99.90;;;;;;5066479;28;20521;-76
2023/07/24 07:09:44;;;;;;;7.03;6.43;;;19.70;99.90;;;;;;5062622;28;20486;-75
2023/07/24 07:12:11;;;;;;;7.70;6.90;;;19.80;99.90;;;;;;5072289;28;20456;-75
2023/07/24 07:14:38;;;;;;;7.97;7.27;;;19.70;99.90;;;;;;5071928;28;20441;-75
2023/07/24 07:17:05;;;;;;;9.20;7.87;;;19.70;99.90;;;;;;5068039;28;20480;-75
2023/07/24 07:19:32;;;;;;;7.57;6.97;;;19.80;99.90;;;;;;5070038;28;20455;-76
2023/07/24 07:21:59;;;;;;;6.80;6.20;;;19.90;99.90;;;;;;5067188;28;20460;-76
2023/07/24 07:24:26;;;;;;;7.60;6.90;;;19.90;99.90;;;;;;5068801;28;20480;-76
2023/07/24 07:26:54;;;;;;;8.97;8.07;;;20.00;99.90;;;;;;5071386;28;20519;-75
2023/07/24 07:29:21;;;;;;;9.17;8.37;;;20.00;99.90;;;;;;5067106;28;20454;-77
2023/07/24 07:31:48;;;;;;;8.13;7.43;;;19.80;99.90;;;;;;5069875;28;20476;-76
2023/07/24 07:34:15;;;;;;;9.93;8.57;;;19.80;99.90;;;;;;5060689;28;20482;-75
2023/07/24 07:36:42;;;;;;;9.53;8.73;;;19.90;99.90;;;;;;5069350;28;20753;-73
2023/07/24 07:39:09;;;;;;;10.10;8.30;;;19.90;99.90;;;;;;5070663;28;20926;-74
2023/07/24 07:41:36;;;;;;;10.30;8.53;;;19.80;99.90;;;;;;5065890;28;20452;-75
2023/07/24 07:44:04;;;;;;;10.63;9.57;;;19.90;99.90;;;;;;5065429;28;20868;-75
2023/07/24 07:46:31;;;;;;;9.00;8.10;;;19.90;99.90;;;;;;5071297;28;20543;-74
2023/07/24 07:48:58;;;;;;;9.00;8.20;;;19.90;99.90;;;;;;5062226;28;20452;-76
2023/07/24 07:51:27;;;;;;;9.37;8.47;;;20.00;99.90;;;;;;5067589;28;20460;-74
2023/07/24 07:53:54;;;;;;;9.43;8.53;;;20.10;99.90;;;;;;5069726;28;20527;-74
2023/07/24 07:56:21;;;;;;;8.63;7.80;;;20.10;99.90;;;;;;5071042;28;20446;-73
2023/07/24 07:58:48;;;;;;;10.00;8.97;;;20.20;99.90;;;;;;5067482;28;20863;-74
2023/07/24 08:01:17;;;;;;;9.63;8.63;;;20.50;99.90;;;;;;5068853;28;20452;-75
2023/07/24 08:03:44;;;;;;;8.80;7.90;;;20.70;99.90;;;;;;5065466;28;20642;-75
2023/07/24 08:06:12;;;;;;;9.30;8.43;;;21.00;99.90;;;;;;5079914;28;20459;-73
2023/07/24 08:08:39;;;;;;;9.53;8.63;;;21.10;99.90;;;;;;5078104;28;20443;-73
2023/07/24 08:11:06;;;;;;;9.13;8.23;;;21.10;99.90;;;;;;5070741;28;20531;-75
2023/07/24 08:13:34;;;;;;;10.13;9.23;;;21.10;99.90;;;;;;5066391;28;20471;-76
2023/07/24 08:16:02;;;;;;;8.13;7.33;;;21.10;99.90;;;;;;5065228;28;20533;-75
2023/07/24 08:18:31;;;;;;;8.23;7.43;;;21.20;99.90;;;;;;5075536;28;20453;-76
2023/07/24 08:20:58;;;;;;;18.63;16.73;;;21.10;99.90;;;;;;5074699;28;20472;-75
2023/07/24 08:23:25;;;;;;;7.80;7.10;;;21.10;99.90;;;;;;5074965;28;20545;-76
2023/07/24 08:25:53;;;;;;;11.00;7.97;;;21.20;99.90;;;;;;5074729;28;20476;-75
2023/07/24 08:28:19;;;;;;;9.13;8.33;;;21.30;99.90;;;;;;5070420;28;20484;-75
2023/07/24 08:30:47;;;;;;;8.80;8.00;;;21.30;99.90;;;;;;5073305;28;20547;-76
2023/07/24 08:33:14;;;;;;;9.10;8.10;;;21.30;99.90;;;;;;5071340;28;20462;-75
2023/07/24 08:35:43;;;;;;;9.67;8.67;;;21.30;99.90;;;;;;5073197;28;20445;-74
2023/07/24 08:38:09;;;;;;;7.80;7.10;;;21.30;99.90;;;;;;5075111;28;20441;-73
2023/07/24 08:40:37;;;;;;;9.53;8.73;;;21.40;99.90;;;;;;5069501;28;20517;-73
2023/07/24 08:43:05;;;;;;;8.87;8.07;;;21.50;99.90;;;;;;5072232;28;20495;-73
2023/07/24 08:45:32;;;;;;;9.10;8.30;;;21.50;99.90;;;;;;5069171;28;20453;-73
2023/07/24 08:48:00;;;;;;;9.97;8.40;;;21.20;99.90;;;;;;5069812;28;20484;-73
2023/07/24 08:50:28;;;;;;;10.43;9.50;;;21.10;99.90;;;;;;5071392;28;20453;-74
2023/07/24 08:52:57;;;;;;;11.60;8.60;;;21.10;99.90;;;;;;5073451;28;20469;-74
2023/07/24 08:55:26;;;;;;;9.57;8.80;;;21.20;99.90;;;;;;5072567;28;20551;-74
2023/07/24 08:57:53;;;;;;;9.37;8.60;;;21.30;99.90;;;;;;5067173;28;20887;-73
2023/07/24 09:00:20;;;;;;;8.93;8.23;;;21.50;99.90;;;;;;5059112;28;20481;-75
2023/07/24 09:02:47;;;;;;;8.70;7.90;;;21.70;99.90;;;;;;5062153;28;21024;-75
2023/07/24 09:05:15;;;;;;;9.47;8.67;;;21.90;99.90;;;;;;5064865;28;20512;-74
2023/07/24 09:07:42;;;;;;;9.77;8.97;;;21.70;99.90;;;;;;5060218;28;20489;-75
2023/07/24 09:10:11;;;;;;;8.63;7.73;;;21.60;99.90;;;;;;5071976;28;20481;-75
2023/07/24 09:12:38;;;;;;;10.90;7.83;;;21.60;99.90;;;;;;5070738;28;20473;-74
2023/07/24 09:15:07;;;;;;;11.10;10.00;;;21.60;99.90;;;;;;5071539;28;20444;-73
2023/07/24 09:17:36;;;;;;;8.87;8.10;;;21.60;99.90;;;;;;5066441;28;20575;-74
2023/07/24 09:20:04;;;;;;;8.30;7.60;;;21.50;99.90;;;;;;5073039;28;20564;-73
2023/07/24 09:22:31;;;;;;;9.50;8.63;;;21.60;99.90;;;;;;5068016;28;20547;-73
2023/07/24 09:24:59;;;;;;;9.23;8.30;;;21.70;99.90;;;;;;5073753;28;20519;-73
2023/07/24 09:27:29;;;;;;;7.87;6.87;;;21.70;99.90;;;;;;5069122;28;20477;-73
2023/07/24 09:29:57;;;;;;;8.63;7.53;;;21.60;99.90;;;;;;5072968;28;20448;-72
2023/07/24 09:32:28;;;;;;;7.63;6.90;;;21.40;99.90;;;;;;5065101;28;20515;-73
2023/07/24 09:34:55;;;;;;;6.67;5.97;;;21.50;99.90;;;;;;5065560;28;20583;-72
2023/07/24 09:37:27;;;;;;;6.00;5.50;;;21.60;99.90;;;;;;5068522;28;20452;-73
2023/07/24 09:39:54;;;;;;;5.17;4.67;;;21.70;99.90;;;;;;5069794;28;20457;-73
2023/07/24 09:42:30;;;;;;;5.17;4.67;;;22.10;99.90;;;;;;5070808;28;20468;-74
2023/07/24 09:44:57;;;;;;;4.70;4.27;;;22.40;99.90;;;;;;5071124;28;20514;-73
2023/07/24 09:47:25;;;;;;;4.50;4.10;;;22.90;99.90;;;;;;5072659;28;20477;-73
2023/07/24 09:49:53;;;;;;;5.50;4.67;;;23.80;99.90;;;;;;5064894;28;20984;-73
2023/07/24 09:52:21;;;;;;;4.73;3.80;;;24.40;99.90;;;;;;5071205;28;20433;-73
2023/07/24 09:54:56;;;;;;;7.60;4.23;;;25.30;99.90;;;;;;5069945;28;20482;-74
2023/07/24 09:57:24;;;;;;;6.30;4.37;;;25.50;99.90;;;;;;5065507;28;20460;-74
2023/07/24 09:59:55;;;;;;;7.43;4.27;;;25.70;99.90;;;;;;5069205;28;20449;-74
2023/07/24 10:02:23;;;;;;;7.30;4.73;;;26.30;99.90;;;;;;5075008;28;20448;-73
2023/07/24 10:04:51;;;;;;;5.27;4.77;;;27.00;99.90;;;;;;5074209;28;20822;-75
2023/07/24 10:07:24;;;;;;;5.43;4.80;;;27.30;99.90;;;;;;5074637;28;20472;-75
2023/07/24 10:09:52;;;;;;;4.43;4.03;;;27.30;99.90;;;;;;5071127;28;20441;-75
2023/07/24 10:12:20;;;;;;;5.80;4.50;;;27.90;99.90;;;;;;5065199;28;20441;-75
2023/07/24 10:14:47;;;;;;;5.00;4.50;;;28.20;99.90;;;;;;5061890;28;20512;-75
2023/07/24 10:17:25;;;;;;;5.20;4.70;;;28.20;99.10;;;;;;5071274;28;20452;-76
2023/07/24 10:19:52;;;;;;;5.63;5.07;;;27.50;99.90;;;;;;5069779;28;20463;-76
2023/07/24 10:22:20;;;;;;;5.80;5.30;;;27.40;99.40;;;;;;5067304;28;20528;-76
2023/07/24 10:24:47;;;;;;;5.73;5.23;;;27.70;99.30;;;;;;5068909;28;20924;-75
2023/07/24 10:27:14;;;;;;;5.10;4.60;;;27.50;97.30;;;;;;5062389;28;20531;-75
2023/07/24 10:29:41;;;;;;;5.37;4.43;;;27.30;99.60;;;;;;5070950;28;20797;-74
2023/07/24 10:32:19;;;;;;;5.30;4.80;;;27.80;99.40;;;;;;5067586;28;21191;-74
2023/07/24 10:34:46;;;;;;;4.83;4.43;;;28.10;98.50;;;;;;5072561;28;20544;-74
2023/07/24 10:37:12;;;;;;;4.57;4.03;;;28.00;97.80;;;;;;5064972;28;20537;-74
2023/07/24 10:39:41;;;;;;;6.90;4.00;;;27.90;96.40;;;;;;5060889;28;20531;-74
2023/07/24 10:42:09;;;;;;;4.50;4.10;;;27.60;96.30;;;;;;5062137;28;20442;-75
2023/07/24 10:44:36;;;;;;;5.43;4.93;;;27.30;97.50;;;;;;5070408;28;20453;-76
2023/07/24 10:47:05;;;;;;;4.90;4.50;;;27.00;98.30;;;;;;5065142;28;20445;-75
2023/07/24 10:49:34;;;;;;;5.20;4.73;;;27.00;99.10;;;;;;5066642;28;20532;-75
2023/07/24 10:52:01;;;;;;;5.80;5.23;;;27.00;98.60;;;;;;5071743;28;20800;-73
2023/07/24 10:54:28;;;;;;;8.00;5.37;;;26.70;97.40;;;;;;5071051;28;20457;-73
2023/07/24 10:57:01;;;;;;;5.17;4.70;;;26.30;98.20;;;;;;5072112;28;20449;-74
2023/07/24 10:59:39;;;;;;;10.20;6.27;;;26.20;99.30;;;;;;5069243;28;20500;-74
2023/07/24 11:02:06;;;;;;;6.83;5.00;;;26.20;98.70;;;;;;5065031;28;20522;-75
2023/07/24 11:04:34;;;;;;;5.53;5.03;;;26.20;98.80;;;;;;5067787;28;20479;-75
2023/07/24 11:07:02;;;;;;;5.40;4.90;;;26.30;98.90;;;;;;5070247;28;20531;-75
2023/07/24 11:09:36;;;;;;;5.40;5.00;;;26.30;97.40;;;;;;5071919;28;20513;-75
2023/07/24 11:12:11;;;;;;;7.03;6.33;;;26.30;98.10;;;;;;5071245;28;20439;-75
2023/07/24 11:14:48;;;;;;;6.77;6.17;;;26.10;97.30;;;;;;5072308;28;20453;-74
2023/07/24 11:17:15;;;;;;;6.10;5.50;;;25.50;97.70;;;;;;5069059;28;20850;-74
2023/07/24 11:19:43;;;;;;;6.17;5.67;;;25.40;97.60;;;;;;5071672;28;20781;-74
2023/07/24 11:22:10;;;;;;;6.33;5.43;;;25.60;98.70;;;;;;5071942;28;20437;-74
2023/07/24 11:24:44;;;;;;;8.40;6.03;;;25.90;97.40;;;;;;5065827;28;20460;-74
2023/07/24 11:27:14;;;;;;;7.10;6.50;;;26.30;96.90;;;;;;5068425;28;20796;-74
2023/07/24 11:29:41;;;;;;;6.30;5.73;;;26.40;95.80;;;;;;5055614;28;20442;-74
2023/07/24 11:32:08;;;;;;;7.70;6.90;;;26.20;95.40;;;;;;5069819;28;20441;-74
2023/07/24 11:34:36;;;;;;;7.43;6.40;;;26.10;96.20;;;;;;5064640;28;20612;-74
2023/07/24 11:37:05;;;;;;;6.60;6.00;;;26.20;95.90;;;;;;5067216;28;20434;-74
2023/07/24 11:39:32;;;;;;;10.23;6.90;;;26.10;95.70;;;;;;5065971;28;20473;-74
2023/07/24 11:42:02;;;;;;;7.23;6.63;;;26.00;95.40;;;;;;5073470;28;20507;-74
2023/07/24 11:44:29;;;;;;;7.73;6.73;;;26.00;96.10;;;;;;5073731;28;20881;-74
2023/07/24 11:47:03;;;;;;;8.60;7.80;;;26.30;95.90;;;;;;5069719;28;20452;-74
2023/07/24 11:49:31;;;;;;;8.53;7.80;;;25.90;95.20;;;;;;5084621;28;20469;-75
2023/07/24 11:52:04;;;;;;;7.90;7.20;;;25.70;96.50;;;;;;5076597;28;20452;-74
2023/07/24 11:54:31;;;;;;;7.23;6.53;;;25.80;97.10;;;;;;5075199;28;20461;-74
2023/07/24 11:56:58;;;;;;;8.70;7.90;;;25.80;97.00;;;;;;5067900;28;20476;-74
2023/07/24 11:59:25;;;;;;;8.33;7.53;;;26.10;96.30;;;;;;5075177;28;20433;-74
2023/07/24 12:01:52;;;;;;;8.23;7.00;;;26.00;95.70;;;;;;5074366;28;20437;-75
2023/07/24 12:04:22;;;;;;;7.27;6.57;;;26.30;95.90;;;;;;5074987;28;20559;-75
2023/07/24 12:06:49;;;;;;;9.87;7.27;;;26.40;95.60;;;;;;5065338;28;20445;-75
2023/07/24 12:09:18;;;;;;;8.43;7.73;;;26.50;95.60;;;;;;5070803;28;20545;-75
2023/07/24 12:11:46;;;;;;;9.20;7.17;;;26.40;95.40;;;;;;5069477;28;20503;-75
2023/07/24 12:14:14;;;;;;;8.07;7.33;;;26.30;95.60;;;;;;5062693;28;20462;-74
2023/07/24 12:16:41;;;;;;;8.17;7.43;;;26.20;95.60;;;;;;5059800;28;20479;-74
2023/07/24 12:19:08;;;;;;;9.67;8.03;;;26.20;95.90;;;;;;5061658;28;20963;-74
2023/07/24 12:21:35;;;;;;;7.97;7.30;;;25.90;95.70;;;;;;5069548;28;20536;-75
2023/07/24 12:24:02;;;;;;;8.80;8.00;;;25.60;95.70;;;;;;5075245;28;20461;-75
2023/07/24 12:26:30;;;;;;;9.57;8.73;;;25.60;96.90;;;;;;5075480;28;20931;-74
2023/07/24 12:29:00;;;;;;;10.17;9.10;;;25.50;97.10;;;;;;5075827;28;20500;-74
2023/07/24 12:31:27;;;;;;;9.97;9.07;;;25.40;97.70;;;;;;5073205;28;20536;-74
2023/07/24 12:33:53;;;;;;;9.17;8.27;;;25.50;98.00;;;;;;5074626;28;20467;-75
2023/07/24 12:36:20;;;;;;;8.87;8.07;;;25.60;97.60;;;;;;5075032;28;20893;-74
2023/07/24 12:38:48;;;;;;;9.67;8.77;;;25.80;97.50;;;;;;5074725;28;20481;-74
2023/07/24 12:41:15;;;;;;;9.87;7.53;;;25.80;96.40;;;;;;5073766;28;20845;-74
2023/07/24 12:43:45;;;;;;;9.37;8.57;;;25.70;96.60;;;;;;5072101;28;20479;-74
2023/07/24 12:46:11;;;;;;;8.07;7.37;;;25.60;96.70;;;;;;5069358;28;20457;-74
2023/07/24 12:48:38;;;;;;;7.30;6.60;;;25.50;97.10;;;;;;5075382;28;20472;-74